sensor_id;sensor_type;location;lat;lon;timestamp;temperature;humidity
18171;DHT22;9210;48.358;10.902;2022-12-18T00:00:07;-4.20;1.00
18171;DHT22;9210;48.358;10.902;2022-12-18T00:02:43;-4.30;1.00
18171;DHT22;9210;48.358;10.902;2022-12-18T00:07:40;-4.30;1.00
18171;DHT22;9210;48.358;10.902;2022-12-18T00:10:08;-4.10;1.00
18171;DHT22;9210;48.358;10.902;2022-12-18T00:12:42;-4.40;1.00
18171;DHT22;9210;48.358;10.902;2022-12-18T00:15:11;-4.40;1.00
18171;DHT22;9210;48.358;10.902;2022-12-18T00:17:39;-4.10;1.00
18171;DHT22;9210;48.358;10.902;2022-12-18T00:20:08;-4.30;1.00
18171;DHT22;9210;48.358;10.902;2022-12-18T00:22:38;-4.10;1.00
18171;DHT22;9210;48.358;10.902;2022-12-18T00:25:07;-4.30;1.00
18171;DHT22;9210;48.358;10.902;2022-12-18T00:27:36;-4.40;1.00
18171;DHT22;9210;48.358;10.902;2022-12-18T00:30:07;-4.10;1.00
18171;DHT22;9210;48.358;10.902;2022-12-18T00:32:35;-4.20;1.00
18171;DHT22;9210;48.358;10.902;2022-12-18T00:35:05;-3.90;1.00
18171;DHT22;9210;48.358;10.902;2022-12-18T00:37:33;-4.10;1.00
18171;DHT22;9210;48.358;10.902;2022-12-18T00:40:02;-4.00;1.00
18171;DHT22;9210;48.358;10.902;2022-12-18T00:42:30;-4.30;1.00
18171;DHT22;9210;48.358;10.902;2022-12-18T00:45:17;-4.10;1.00
18171;DHT22;9210;48.358;10.902;2022-12-18T00:47:45;-4.20;1.00
18171;DHT22;9210;48.358;10.902;2022-12-18T00:50:14;-4.10;1.00
18171;DHT22;9210;48.358;10.902;2022-12-18T00:52:42;-4.00;1.00
18171;DHT22;9210;48.358;10.902;2022-12-18T00:55:11;-4.20;1.00
18171;DHT22;9210;48.358;10.902;2022-12-18T00:57:40;-4.10;1.00
18171;DHT22;9210;48.358;10.902;2022-12-18T01:00:11;-4.10;1.00
18171;DHT22;9210;48.358;10.902;2022-12-18T01:05:12;-4.20;1.00
18171;DHT22;9210;48.358;10.902;2022-12-18T01:07:41;-4.90;1.00
18171;DHT22;9210;48.358;10.902;2022-12-18T01:10:13;-4.20;1.00
18171;DHT22;9210;48.358;10.902;2022-12-18T01:12:41;-4.00;1.00
18171;DHT22;9210;48.358;10.902;2022-12-18T01:15:10;-3.90;1.00
18171;DHT22;9210;48.358;10.902;2022-12-18T01:32:34;-4.20;1.00
18171;DHT22;9210;48.358;10.902;2022-12-18T01:35:04;-4.50;1.00
18171;DHT22;9210;48.358;10.902;2022-12-18T01:37:33;-4.60;1.00
18171;DHT22;9210;48.358;10.902;2022-12-18T01:40:03;-4.50;1.00
18171;DHT22;9210;48.358;10.902;2022-12-18T01:42:31;-4.50;1.00
18171;DHT22;9210;48.358;10.902;2022-12-18T01:45:05;-4.60;1.00
18171;DHT22;9210;48.358;10.902;2022-12-18T01:47:38;-4.60;1.00
18171;DHT22;9210;48.358;10.902;2022-12-18T01:50:10;-4.60;1.00
18171;DHT22;9210;48.358;10.902;2022-12-18T01:52:41;-4.40;1.00
18171;DHT22;9210;48.358;10.902;2022-12-18T01:55:11;-4.60;1.00
18171;DHT22;9210;48.358;10.902;2022-12-18T01:57:40;-4.60;1.00
18171;DHT22;9210;48.358;10.902;2022-12-18T02:00:12;-4.50;1.00
18171;DHT22;9210;48.358;10.902;2022-12-18T02:05:13;-4.50;1.00
18171;DHT22;9210;48.358;10.902;2022-12-18T02:07:53;-4.80;1.00
18171;DHT22;9210;48.358;10.902;2022-12-18T02:10:27;-4.90;1.00
18171;DHT22;9210;48.358;10.902;2022-12-18T02:13:02;-4.90;1.00
18171;DHT22;9210;48.358;10.902;2022-12-18T02:15:38;-4.80;1.00
18171;DHT22;9210;48.358;10.902;2022-12-18T02:18:11;-4.90;1.00
18171;DHT22;9210;48.358;10.902;2022-12-18T02:23:24;-4.70;1.00
18171;DHT22;9210;48.358;10.902;2022-12-18T02:26:04;-4.90;1.00
18171;DHT22;9210;48.358;10.902;2022-12-18T02:28:37;-4.90;1.00
18171;DHT22;9210;48.358;10.902;2022-12-18T02:31:11;-5.00;1.00
18171;DHT22;9210;48.358;10.902;2022-12-18T02:33:44;-4.80;1.00
18171;DHT22;9210;48.358;10.902;2022-12-18T02:36:13;-4.90;1.00
18171;DHT22;9210;48.358;10.902;2022-12-18T02:38:44;-4.80;1.00
18171;DHT22;9210;48.358;10.902;2022-12-18T02:41:17;-4.80;1.00
18171;DHT22;9210;48.358;10.902;2022-12-18T02:43:47;-4.90;1.00
18171;DHT22;9210;48.358;10.902;2022-12-18T02:46:29;-4.70;1.00
18171;DHT22;9210;48.358;10.902;2022-12-18T02:49:16;-5.10;1.00
18171;DHT22;9210;48.358;10.902;2022-12-18T02:51:52;-5.10;1.00
18171;DHT22;9210;48.358;10.902;2022-12-18T02:54:41;-5.00;1.00
18171;DHT22;9210;48.358;10.902;2022-12-18T02:57:19;-4.70;1.00
18171;DHT22;9210;48.358;10.902;2022-12-18T02:59:57;-5.00;1.00
18171;DHT22;9210;48.358;10.902;2022-12-18T03:02:31;-4.70;1.00
18171;DHT22;9210;48.358;10.902;2022-12-18T03:05:05;-4.80;1.00
18171;DHT22;9210;48.358;10.902;2022-12-18T03:07:38;-4.80;1.00
18171;DHT22;9210;48.358;10.902;2022-12-18T03:10:13;-4.80;1.00
18171;DHT22;9210;48.358;10.902;2022-12-18T03:12:47;-4.80;1.00
18171;DHT22;9210;48.358;10.902;2022-12-18T03:15:22;-4.70;1.00
18171;DHT22;9210;48.358;10.902;2022-12-18T03:18:01;-4.70;1.00
18171;DHT22;9210;48.358;10.902;2022-12-18T03:20:32;-4.70;1.00
18171;DHT22;9210;48.358;10.902;2022-12-18T03:23:06;-4.80;1.00
18171;DHT22;9210;48.358;10.902;2022-12-18T03:25:39;-4.80;1.00
18171;DHT22;9210;48.358;10.902;2022-12-18T03:28:12;-4.90;1.00
18171;DHT22;9210;48.358;10.902;2022-12-18T03:30:45;-4.80;1.00
18171;DHT22;9210;48.358;10.902;2022-12-18T03:33:18;-5.00;1.00
18171;DHT22;9210;48.358;10.902;2022-12-18T03:35:50;-4.70;1.00
18171;DHT22;9210;48.358;10.902;2022-12-18T03:38:18;-4.80;1.00
18171;DHT22;9210;48.358;10.902;2022-12-18T03:40:58;-4.70;1.00
18171;DHT22;9210;48.358;10.902;2022-12-18T03:43:43;-4.60;1.00
18171;DHT22;9210;48.358;10.902;2022-12-18T03:46:17;-4.60;1.00
18171;DHT22;9210;48.358;10.902;2022-12-18T03:48:52;-4.70;1.00
18171;DHT22;9210;48.358;10.902;2022-12-18T03:51:27;-4.60;1.00
18171;DHT22;9210;48.358;10.902;2022-12-18T03:53:59;-4.90;1.00
18171;DHT22;9210;48.358;10.902;2022-12-18T03:56:42;-4.50;1.00
18171;DHT22;9210;48.358;10.902;2022-12-18T03:59:15;-4.70;1.00
18171;DHT22;9210;48.358;10.902;2022-12-18T04:01:47;-4.70;1.00
18171;DHT22;9210;48.358;10.902;2022-12-18T04:04:18;-4.60;1.00
18171;DHT22;9210;48.358;10.902;2022-12-18T04:06:48;-4.80;1.00
18171;DHT22;9210;48.358;10.902;2022-12-18T04:09:19;-4.60;1.00
18171;DHT22;9210;48.358;10.902;2022-12-18T04:11:48;-4.80;1.00
18171;DHT22;9210;48.358;10.902;2022-12-18T04:14:18;-4.70;1.00
18171;DHT22;9210;48.358;10.902;2022-12-18T04:16:50;-4.90;1.00
18171;DHT22;9210;48.358;10.902;2022-12-18T04:19:23;-5.00;1.00
18171;DHT22;9210;48.358;10.902;2022-12-18T04:32:10;-4.80;1.00
18171;DHT22;9210;48.358;10.902;2022-12-18T04:42:14;-4.70;1.00
18171;DHT22;9210;48.358;10.902;2022-12-18T04:44:43;-4.80;1.00
18171;DHT22;9210;48.358;10.902;2022-12-18T04:59:33;-4.80;1.00
18171;DHT22;9210;48.358;10.902;2022-12-18T05:02:03;-4.70;1.00
18171;DHT22;9210;48.358;10.902;2022-12-18T05:04:31;-4.80;1.00
18171;DHT22;9210;48.358;10.902;2022-12-18T05:06:59;-4.70;1.00
18171;DHT22;9210;48.358;10.902;2022-12-18T05:16:54;-4.70;1.00
18171;DHT22;9210;48.358;10.902;2022-12-18T05:21:57;-4.40;1.00
18171;DHT22;9210;48.358;10.902;2022-12-18T05:24:25;-4.60;1.00
18171;DHT22;9210;48.358;10.902;2022-12-18T05:26:54;-4.80;1.00
18171;DHT22;9210;48.358;10.902;2022-12-18T05:34:19;-4.80;1.00
18171;DHT22;9210;48.358;10.902;2022-12-18T05:44:14;-4.80;1.00
18171;DHT22;9210;48.358;10.902;2022-12-18T05:54:10;-4.60;1.00
18171;DHT22;9210;48.358;10.902;2022-12-18T05:59:14;-4.80;1.00
18171;DHT22;9210;48.358;10.902;2022-12-18T06:01:42;-4.70;1.00
18171;DHT22;9210;48.358;10.902;2022-12-18T06:04:11;-4.90;1.00
18171;DHT22;9210;48.358;10.902;2022-12-18T06:06:39;-4.80;1.00
18171;DHT22;9210;48.358;10.902;2022-12-18T06:09:07;-4.90;1.00
18171;DHT22;9210;48.358;10.902;2022-12-18T06:29:01;-4.60;1.00
18171;DHT22;9210;48.358;10.902;2022-12-18T06:31:30;-4.60;1.00
18171;DHT22;9210;48.358;10.902;2022-12-18T07:18:53;-4.60;1.00
18171;DHT22;9210;48.358;10.902;2022-12-18T09:16:26;-4.70;1.00
18171;DHT22;9210;48.358;10.902;2022-12-18T09:18:59;-4.30;1.00
18171;DHT22;9210;48.358;10.902;2022-12-18T09:21:29;-4.20;1.00
18171;DHT22;9210;48.358;10.902;2022-12-18T09:24:02;-4.30;1.00
18171;DHT22;9210;48.358;10.902;2022-12-18T09:26:31;-4.40;1.00
18171;DHT22;9210;48.358;10.902;2022-12-18T09:28:59;-4.40;1.00
18171;DHT22;9210;48.358;10.902;2022-12-18T09:31:29;-4.20;1.00
18171;DHT22;9210;48.358;10.902;2022-12-18T09:33:57;-4.10;1.00
18171;DHT22;9210;48.358;10.902;2022-12-18T09:36:26;-4.20;1.00
18171;DHT22;9210;48.358;10.902;2022-12-18T09:38:54;-4.20;1.00
18171;DHT22;9210;48.358;10.902;2022-12-18T09:44:24;-4.30;1.00
18171;DHT22;9210;48.358;10.902;2022-12-18T09:47:02;-4.10;1.00
18171;DHT22;9210;48.358;10.902;2022-12-18T11:01:11;-4.10;1.00
18171;DHT22;9210;48.358;10.902;2022-12-18T11:08:41;-3.70;1.00
18171;DHT22;9210;48.358;10.902;2022-12-18T11:11:19;-3.80;1.00
18171;DHT22;9210;48.358;10.902;2022-12-18T11:16:29;-4.00;1.00
18171;DHT22;9210;48.358;10.902;2022-12-18T11:19:19;-4.20;1.00
18171;DHT22;9210;48.358;10.902;2022-12-18T11:21:49;-3.80;1.00
18171;DHT22;9210;48.358;10.902;2022-12-18T12:31:29;-3.70;1.00
18171;DHT22;9210;48.358;10.902;2022-12-18T12:34:07;-3.80;1.00
18171;DHT22;9210;48.358;10.902;2022-12-18T12:36:53;-3.70;1.00
18171;DHT22;9210;48.358;10.902;2022-12-18T12:39:30;-3.80;1.00
18171;DHT22;9210;48.358;10.902;2022-12-18T12:41:58;-3.50;1.00
18171;DHT22;9210;48.358;10.902;2022-12-18T12:44:49;-3.70;1.00
18171;DHT22;9210;48.358;10.902;2022-12-18T12:47:26;-3.80;1.00
18171;DHT22;9210;48.358;10.902;2022-12-18T15:03:26;-3.80;1.00
